sensor_id;sensor_type;location;lat;lon;timestamp;P1;durP1;ratioP1;P2;durP2;ratioP2
2161;SDS011;1087;50.226;8.682;2022-09-20T00:01:56;4.67;;;2.47;;
2161;SDS011;1087;50.226;8.682;2022-09-20T00:04:21;4.90;;;2.30;;
2161;SDS011;1087;50.226;8.682;2022-09-20T00:06:47;3.80;;;1.83;;
2161;SDS011;1087;50.226;8.682;2022-09-20T00:09:12;3.97;;;2.20;;
2161;SDS011;1087;50.226;8.682;2022-09-20T00:11:38;3.87;;;2.20;;
2161;SDS011;1087;50.226;8.682;2022-09-20T00:14:04;5.40;;;2.53;;
2161;SDS011;1087;50.226;8.682;2022-09-20T00:16:33;4.70;;;2.40;;
2161;SDS011;1087;50.226;8.682;2022-09-20T00:19:03;5.77;;;2.60;;
2161;SDS011;1087;50.226;8.682;2022-09-20T00:21:29;3.77;;;2.60;;
2161;SDS011;1087;50.226;8.682;2022-09-20T00:23:56;5.20;;;2.83;;
2161;SDS011;1087;50.226;8.682;2022-09-20T00:26:22;5.30;;;4.27;;
2161;SDS011;1087;50.226;8.682;2022-09-20T00:28:49;6.13;;;3.60;;
2161;SDS011;1087;50.226;8.682;2022-09-20T00:31:15;4.27;;;2.13;;
2161;SDS011;1087;50.226;8.682;2022-09-20T00:33:41;5.67;;;2.43;;
2161;SDS011;1087;50.226;8.682;2022-09-20T00:36:26;4.40;;;2.50;;
2161;SDS011;1087;50.226;8.682;2022-09-20T00:38:55;6.13;;;2.80;;
2161;SDS011;1087;50.226;8.682;2022-09-20T00:41:21;29.17;;;4.10;;
2161;SDS011;1087;50.226;8.682;2022-09-20T00:43:47;4.67;;;2.67;;
2161;SDS011;1087;50.226;8.682;2022-09-20T00:46:23;5.73;;;2.50;;
2161;SDS011;1087;50.226;8.682;2022-09-20T00:49:00;4.17;;;2.80;;
2161;SDS011;1087;50.226;8.682;2022-09-20T00:51:31;5.73;;;3.00;;
2161;SDS011;1087;50.226;8.682;2022-09-20T00:53:59;7.67;;;3.13;;
2161;SDS011;1087;50.226;8.682;2022-09-20T00:56:28;4.33;;;2.47;;
2161;SDS011;1087;50.226;8.682;2022-09-20T00:59:02;5.87;;;3.23;;
2161;SDS011;1087;50.226;8.682;2022-09-20T01:01:32;3.93;;;3.00;;
2161;SDS011;1087;50.226;8.682;2022-09-20T01:03:58;5.43;;;3.07;;
2161;SDS011;1087;50.226;8.682;2022-09-20T01:06:24;5.23;;;3.70;;
2161;SDS011;1087;50.226;8.682;2022-09-20T01:08:50;5.00;;;3.07;;
2161;SDS011;1087;50.226;8.682;2022-09-20T01:11:20;3.87;;;2.60;;
2161;SDS011;1087;50.226;8.682;2022-09-20T01:13:45;5.50;;;3.17;;
2161;SDS011;1087;50.226;8.682;2022-09-20T01:16:11;5.03;;;4.53;;
2161;SDS011;1087;50.226;8.682;2022-09-20T01:18:39;4.43;;;3.00;;
2161;SDS011;1087;50.226;8.682;2022-09-20T01:21:07;5.00;;;4.53;;
2161;SDS011;1087;50.226;8.682;2022-09-20T01:23:45;4.57;;;3.20;;
2161;SDS011;1087;50.226;8.682;2022-09-20T01:26:21;4.33;;;3.03;;
2161;SDS011;1087;50.226;8.682;2022-09-20T01:29:00;6.53;;;3.30;;
2161;SDS011;1087;50.226;8.682;2022-09-20T01:31:33;5.90;;;4.00;;
2161;SDS011;1087;50.226;8.682;2022-09-20T01:34:03;6.67;;;3.63;;
2161;SDS011;1087;50.226;8.682;2022-09-20T01:36:48;4.67;;;3.63;;
2161;SDS011;1087;50.226;8.682;2022-09-20T01:39:22;7.50;;;4.20;;
2161;SDS011;1087;50.226;8.682;2022-09-20T01:41:55;6.47;;;3.23;;
2161;SDS011;1087;50.226;8.682;2022-09-20T01:47:04;6.27;;;4.20;;
2161;SDS011;1087;50.226;8.682;2022-09-20T01:49:41;6.10;;;4.17;;
2161;SDS011;1087;50.226;8.682;2022-09-20T01:55:24;8.70;;;4.63;;
2161;SDS011;1087;50.226;8.682;2022-09-20T01:58:18;4.20;;;3.13;;
2161;SDS011;1087;50.226;8.682;2022-09-20T02:01:13;5.83;;;3.17;;
2161;SDS011;1087;50.226;8.682;2022-09-20T02:14:57;6.60;;;3.00;;
2161;SDS011;1087;50.226;8.682;2022-09-20T02:18:08;6.00;;;3.13;;
2161;SDS011;1087;50.226;8.682;2022-09-20T02:20:59;3.90;;;3.10;;
2161;SDS011;1087;50.226;8.682;2022-09-20T02:29:15;4.73;;;3.47;;
2161;SDS011;1087;50.226;8.682;2022-09-20T02:35:19;5.03;;;4.33;;
2161;SDS011;1087;50.226;8.682;2022-09-20T02:43:30;8.90;;;4.27;;
2161;SDS011;1087;50.226;8.682;2022-09-20T02:46:06;6.40;;;4.00;;
2161;SDS011;1087;50.226;8.682;2022-09-20T02:48:57;3.90;;;2.97;;
2161;SDS011;1087;50.226;8.682;2022-09-20T02:56:45;4.23;;;3.40;;
2161;SDS011;1087;50.226;8.682;2022-09-20T02:59:34;5.87;;;4.00;;
2161;SDS011;1087;50.226;8.682;2022-09-20T03:02:12;6.53;;;3.40;;
2161;SDS011;1087;50.226;8.682;2022-09-20T03:24:28;7.13;;;3.77;;
2161;SDS011;1087;50.226;8.682;2022-09-20T03:39:00;7.80;;;3.07;;
2161;SDS011;1087;50.226;8.682;2022-09-20T03:53:15;3.67;;;2.70;;
2161;SDS011;1087;50.226;8.682;2022-09-20T03:59:02;9.13;;;3.57;;
2161;SDS011;1087;50.226;8.682;2022-09-20T04:05:11;3.23;;;2.90;;
2161;SDS011;1087;50.226;8.682;2022-09-20T04:12:48;9.60;;;4.20;;
2161;SDS011;1087;50.226;8.682;2022-09-20T04:15:39;4.20;;;2.90;;
2161;SDS011;1087;50.226;8.682;2022-09-20T04:18:35;4.90;;;3.33;;
2161;SDS011;1087;50.226;8.682;2022-09-20T04:26:35;6.00;;;3.30;;
2161;SDS011;1087;50.226;8.682;2022-09-20T04:31:52;4.80;;;3.40;;
2161;SDS011;1087;50.226;8.682;2022-09-20T04:34:30;6.13;;;4.10;;
2161;SDS011;1087;50.226;8.682;2022-09-20T04:37:23;8.13;;;3.20;;
2161;SDS011;1087;50.226;8.682;2022-09-20T04:40:14;8.77;;;6.00;;
2161;SDS011;1087;50.226;8.682;2022-09-20T04:48:36;8.50;;;5.90;;
2161;SDS011;1087;50.226;8.682;2022-09-20T04:51:32;10.93;;;5.90;;
2161;SDS011;1087;50.226;8.682;2022-09-20T04:59:06;5.00;;;3.60;;
2161;SDS011;1087;50.226;8.682;2022-09-20T05:21:13;7.83;;;5.07;;
2161;SDS011;1087;50.226;8.682;2022-09-20T05:29:16;9.67;;;6.70;;
2161;SDS011;1087;50.226;8.682;2022-09-20T05:32:01;11.93;;;6.23;;
2161;SDS011;1087;50.226;8.682;2022-09-20T05:34:47;15.00;;;8.70;;
2161;SDS011;1087;50.226;8.682;2022-09-20T05:37:42;14.43;;;8.97;;
2161;SDS011;1087;50.226;8.682;2022-09-20T05:43:16;16.13;;;9.63;;
2161;SDS011;1087;50.226;8.682;2022-09-20T05:55:27;7.60;;;4.60;;
2161;SDS011;1087;50.226;8.682;2022-09-20T06:03:55;7.60;;;4.57;;
2161;SDS011;1087;50.226;8.682;2022-09-20T06:06:46;4.53;;;4.13;;
2161;SDS011;1087;50.226;8.682;2022-09-20T06:09:38;9.00;;;4.83;;
2161;SDS011;1087;50.226;8.682;2022-09-20T06:23:23;13.97;;;6.20;;
2161;SDS011;1087;50.226;8.682;2022-09-20T06:25:54;12.40;;;8.03;;
2161;SDS011;1087;50.226;8.682;2022-09-20T06:28:31;7.23;;;6.00;;
2161;SDS011;1087;50.226;8.682;2022-09-20T06:30:59;9.10;;;6.10;;
2161;SDS011;1087;50.226;8.682;2022-09-20T06:33:26;7.30;;;5.50;;
2161;SDS011;1087;50.226;8.682;2022-09-20T06:42:07;8.07;;;5.83;;
2161;SDS011;1087;50.226;8.682;2022-09-20T06:44:34;11.20;;;6.67;;
2161;SDS011;1087;50.226;8.682;2022-09-20T06:47:05;9.07;;;6.93;;
2161;SDS011;1087;50.226;8.682;2022-09-20T06:49:34;8.43;;;5.73;;
2161;SDS011;1087;50.226;8.682;2022-09-20T06:52:00;9.53;;;5.90;;
2161;SDS011;1087;50.226;8.682;2022-09-20T06:54:34;11.20;;;6.80;;
2161;SDS011;1087;50.226;8.682;2022-09-20T06:57:02;12.13;;;7.63;;
2161;SDS011;1087;50.226;8.682;2022-09-20T06:59:29;12.47;;;6.43;;
2161;SDS011;1087;50.226;8.682;2022-09-20T07:01:55;10.00;;;6.60;;
2161;SDS011;1087;50.226;8.682;2022-09-20T07:04:21;8.13;;;7.00;;
2161;SDS011;1087;50.226;8.682;2022-09-20T07:06:50;12.53;;;6.43;;
2161;SDS011;1087;50.226;8.682;2022-09-20T07:09:17;10.00;;;6.13;;
2161;SDS011;1087;50.226;8.682;2022-09-20T07:11:43;10.47;;;6.00;;
2161;SDS011;1087;50.226;8.682;2022-09-20T07:14:10;7.87;;;6.17;;
2161;SDS011;1087;50.226;8.682;2022-09-20T07:16:36;7.30;;;5.93;;
2161;SDS011;1087;50.226;8.682;2022-09-20T07:19:02;7.87;;;5.73;;
2161;SDS011;1087;50.226;8.682;2022-09-20T07:21:30;8.40;;;6.07;;
2161;SDS011;1087;50.226;8.682;2022-09-20T07:23:55;8.30;;;5.50;;
2161;SDS011;1087;50.226;8.682;2022-09-20T07:26:25;8.40;;;5.20;;
2161;SDS011;1087;50.226;8.682;2022-09-20T07:28:53;6.70;;;5.17;;
2161;SDS011;1087;50.226;8.682;2022-09-20T07:31:20;6.50;;;5.50;;
2161;SDS011;1087;50.226;8.682;2022-09-20T07:33:47;6.53;;;4.70;;
2161;SDS011;1087;50.226;8.682;2022-09-20T07:36:13;6.23;;;5.30;;
2161;SDS011;1087;50.226;8.682;2022-09-20T07:38:39;5.10;;;4.60;;
2161;SDS011;1087;50.226;8.682;2022-09-20T07:41:06;8.73;;;5.27;;
2161;SDS011;1087;50.226;8.682;2022-09-20T07:43:32;9.17;;;4.53;;
2161;SDS011;1087;50.226;8.682;2022-09-20T07:45:57;10.00;;;5.80;;
2161;SDS011;1087;50.226;8.682;2022-09-20T07:48:24;10.70;;;5.33;;
2161;SDS011;1087;50.226;8.682;2022-09-20T07:50:53;8.27;;;5.33;;
2161;SDS011;1087;50.226;8.682;2022-09-20T07:53:27;5.03;;;4.50;;
2161;SDS011;1087;50.226;8.682;2022-09-20T07:55:57;8.13;;;5.00;;
2161;SDS011;1087;50.226;8.682;2022-09-20T07:58:43;7.50;;;5.17;;
2161;SDS011;1087;50.226;8.682;2022-09-20T08:01:09;9.17;;;4.57;;
2161;SDS011;1087;50.226;8.682;2022-09-20T08:03:37;7.73;;;4.63;;
2161;SDS011;1087;50.226;8.682;2022-09-20T08:06:03;9.30;;;5.30;;
2161;SDS011;1087;50.226;8.682;2022-09-20T08:08:32;7.63;;;4.63;;
2161;SDS011;1087;50.226;8.682;2022-09-20T08:11:06;5.60;;;4.13;;
2161;SDS011;1087;50.226;8.682;2022-09-20T08:13:37;5.17;;;3.63;;
2161;SDS011;1087;50.226;8.682;2022-09-20T08:16:11;7.10;;;3.87;;
2161;SDS011;1087;50.226;8.682;2022-09-20T08:18:38;6.53;;;4.03;;
2161;SDS011;1087;50.226;8.682;2022-09-20T08:21:08;7.20;;;3.73;;
2161;SDS011;1087;50.226;8.682;2022-09-20T08:23:35;8.50;;;4.23;;
2161;SDS011;1087;50.226;8.682;2022-09-20T08:26:05;4.30;;;3.90;;
2161;SDS011;1087;50.226;8.682;2022-09-20T08:28:33;4.83;;;3.27;;
2161;SDS011;1087;50.226;8.682;2022-09-20T08:31:15;5.45;;;3.60;;
2161;SDS011;1087;50.226;8.682;2022-09-20T08:33:44;5.30;;;3.50;;
2161;SDS011;1087;50.226;8.682;2022-09-20T08:36:16;5.47;;;3.50;;
2161;SDS011;1087;50.226;8.682;2022-09-20T08:38:43;5.93;;;3.10;;
2161;SDS011;1087;50.226;8.682;2022-09-20T08:41:21;6.23;;;4.00;;
2161;SDS011;1087;50.226;8.682;2022-09-20T08:44:06;6.00;;;4.37;;
2161;SDS011;1087;50.226;8.682;2022-09-20T08:46:36;5.60;;;3.40;;
2161;SDS011;1087;50.226;8.682;2022-09-20T08:49:06;5.23;;;3.30;;
2161;SDS011;1087;50.226;8.682;2022-09-20T08:51:35;4.80;;;3.17;;
2161;SDS011;1087;50.226;8.682;2022-09-20T08:54:05;4.40;;;3.30;;
2161;SDS011;1087;50.226;8.682;2022-09-20T08:56:37;6.17;;;3.37;;
2161;SDS011;1087;50.226;8.682;2022-09-20T08:59:03;9.67;;;4.37;;
2161;SDS011;1087;50.226;8.682;2022-09-20T09:01:32;8.37;;;4.07;;
2161;SDS011;1087;50.226;8.682;2022-09-20T09:04:01;4.80;;;3.50;;
2161;SDS011;1087;50.226;8.682;2022-09-20T09:06:40;4.90;;;2.93;;
2161;SDS011;1087;50.226;8.682;2022-09-20T09:09:09;5.33;;;3.53;;
2161;SDS011;1087;50.226;8.682;2022-09-20T09:11:53;5.40;;;3.50;;
2161;SDS011;1087;50.226;8.682;2022-09-20T09:17:14;5.83;;;3.70;;
2161;SDS011;1087;50.226;8.682;2022-09-20T09:19:48;6.17;;;3.60;;
2161;SDS011;1087;50.226;8.682;2022-09-20T09:25:18;4.57;;;3.50;;
2161;SDS011;1087;50.226;8.682;2022-09-20T09:32:50;5.67;;;2.87;;
2161;SDS011;1087;50.226;8.682;2022-09-20T09:35:29;8.63;;;3.33;;
2161;SDS011;1087;50.226;8.682;2022-09-20T09:37:59;4.33;;;3.10;;
2161;SDS011;1087;50.226;8.682;2022-09-20T09:40:26;7.40;;;3.40;;
2161;SDS011;1087;50.226;8.682;2022-09-20T09:42:55;5.97;;;3.40;;
2161;SDS011;1087;50.226;8.682;2022-09-20T09:45:35;5.03;;;3.20;;
2161;SDS011;1087;50.226;8.682;2022-09-20T09:50:48;6.83;;;3.63;;
2161;SDS011;1087;50.226;8.682;2022-09-20T09:53:15;7.80;;;3.30;;
2161;SDS011;1087;50.226;8.682;2022-09-20T09:55:49;3.77;;;2.40;;
2161;SDS011;1087;50.226;8.682;2022-09-20T09:58:27;4.10;;;3.03;;
2161;SDS011;1087;50.226;8.682;2022-09-20T10:01:05;3.63;;;2.67;;
2161;SDS011;1087;50.226;8.682;2022-09-20T10:03:50;5.37;;;3.40;;
2161;SDS011;1087;50.226;8.682;2022-09-20T10:06:36;7.87;;;2.77;;
2161;SDS011;1087;50.226;8.682;2022-09-20T10:09:30;5.33;;;2.60;;
2161;SDS011;1087;50.226;8.682;2022-09-20T10:14:40;4.10;;;2.60;;
2161;SDS011;1087;50.226;8.682;2022-09-20T10:17:36;4.27;;;2.50;;
2161;SDS011;1087;50.226;8.682;2022-09-20T10:20:28;3.43;;;2.50;;
2161;SDS011;1087;50.226;8.682;2022-09-20T10:25:45;5.07;;;2.97;;
2161;SDS011;1087;50.226;8.682;2022-09-20T10:39:28;3.90;;;2.90;;
2161;SDS011;1087;50.226;8.682;2022-09-20T10:42:01;3.37;;;2.70;;
2161;SDS011;1087;50.226;8.682;2022-09-20T10:47:49;3.43;;;3.10;;
2161;SDS011;1087;50.226;8.682;2022-09-20T10:50:32;7.50;;;2.80;;
2161;SDS011;1087;50.226;8.682;2022-09-20T10:53:03;3.77;;;2.70;;
2161;SDS011;1087;50.226;8.682;2022-09-20T11:04:31;4.77;;;2.90;;
2161;SDS011;1087;50.226;8.682;2022-09-20T11:07:10;6.17;;;3.83;;
2161;SDS011;1087;50.226;8.682;2022-09-20T11:09:53;3.40;;;1.70;;
2161;SDS011;1087;50.226;8.682;2022-09-20T11:12:25;2.40;;;1.40;;
2161;SDS011;1087;50.226;8.682;2022-09-20T11:15:02;4.10;;;1.73;;
2161;SDS011;1087;50.226;8.682;2022-09-20T11:17:37;3.00;;;1.60;;
2161;SDS011;1087;50.226;8.682;2022-09-20T11:20:16;2.80;;;1.60;;
2161;SDS011;1087;50.226;8.682;2022-09-20T11:22:51;3.53;;;1.70;;
2161;SDS011;1087;50.226;8.682;2022-09-20T11:28:10;3.50;;;1.77;;
2161;SDS011;1087;50.226;8.682;2022-09-20T11:30:53;1.80;;;1.70;;
2161;SDS011;1087;50.226;8.682;2022-09-20T11:33:36;2.97;;;1.77;;
2161;SDS011;1087;50.226;8.682;2022-09-20T11:36:18;1.57;;;1.10;;
2161;SDS011;1087;50.226;8.682;2022-09-20T11:38:48;2.40;;;1.63;;
2161;SDS011;1087;50.226;8.682;2022-09-20T11:41:26;4.07;;;1.90;;
2161;SDS011;1087;50.226;8.682;2022-09-20T11:44:00;1.90;;;1.50;;
2161;SDS011;1087;50.226;8.682;2022-09-20T11:46:37;1.53;;;1.30;;
2161;SDS011;1087;50.226;8.682;2022-09-20T11:57:42;1.83;;;1.37;;
2161;SDS011;1087;50.226;8.682;2022-09-20T12:00:09;3.00;;;1.80;;
2161;SDS011;1087;50.226;8.682;2022-09-20T12:02:49;2.27;;;1.40;;
2161;SDS011;1087;50.226;8.682;2022-09-20T12:05:28;2.20;;;1.20;;
2161;SDS011;1087;50.226;8.682;2022-09-20T12:07:58;2.93;;;1.73;;
2161;SDS011;1087;50.226;8.682;2022-09-20T12:10:27;3.20;;;1.50;;
2161;SDS011;1087;50.226;8.682;2022-09-20T12:13:05;1.60;;;1.50;;
2161;SDS011;1087;50.226;8.682;2022-09-20T12:15:42;1.50;;;1.40;;
2161;SDS011;1087;50.226;8.682;2022-09-20T12:18:13;1.93;;;1.20;;
2161;SDS011;1087;50.226;8.682;2022-09-20T12:36:28;5.97;;;4.07;;
2161;SDS011;1087;50.226;8.682;2022-09-20T12:41:51;7.10;;;4.57;;
2161;SDS011;1087;50.226;8.682;2022-09-20T12:44:31;4.03;;;3.30;;
2161;SDS011;1087;50.226;8.682;2022-09-20T12:47:22;5.37;;;3.73;;
2161;SDS011;1087;50.226;8.682;2022-09-20T12:49:56;4.77;;;2.80;;
2161;SDS011;1087;50.226;8.682;2022-09-20T13:08:52;4.43;;;3.27;;
2161;SDS011;1087;50.226;8.682;2022-09-20T13:16:53;2.80;;;2.57;;
2161;SDS011;1087;50.226;8.682;2022-09-20T13:19:22;2.60;;;2.40;;
2161;SDS011;1087;50.226;8.682;2022-09-20T13:21:55;3.00;;;2.50;;
2161;SDS011;1087;50.226;8.682;2022-09-20T13:24:25;4.20;;;2.37;;
2161;SDS011;1087;50.226;8.682;2022-09-20T13:26:52;2.87;;;2.10;;
2161;SDS011;1087;50.226;8.682;2022-09-20T13:29:34;3.27;;;2.00;;
2161;SDS011;1087;50.226;8.682;2022-09-20T13:32:17;1.30;;;1.20;;
2161;SDS011;1087;50.226;8.682;2022-09-20T13:37:34;1.60;;;1.07;;
2161;SDS011;1087;50.226;8.682;2022-09-20T13:40:01;2.37;;;1.60;;
2161;SDS011;1087;50.226;8.682;2022-09-20T13:42:28;2.83;;;2.10;;
2161;SDS011;1087;50.226;8.682;2022-09-20T13:44:57;2.23;;;1.77;;
2161;SDS011;1087;50.226;8.682;2022-09-20T13:47:27;5.07;;;1.70;;
2161;SDS011;1087;50.226;8.682;2022-09-20T13:50:06;2.63;;;1.80;;
2161;SDS011;1087;50.226;8.682;2022-09-20T13:52:45;3.07;;;2.00;;
2161;SDS011;1087;50.226;8.682;2022-09-20T13:55:20;2.30;;;1.60;;
2161;SDS011;1087;50.226;8.682;2022-09-20T13:58:05;1.80;;;1.40;;
2161;SDS011;1087;50.226;8.682;2022-09-20T14:00:31;2.10;;;1.90;;
2161;SDS011;1087;50.226;8.682;2022-09-20T14:02:59;2.57;;;2.23;;
2161;SDS011;1087;50.226;8.682;2022-09-20T14:05:25;2.27;;;1.73;;
2161;SDS011;1087;50.226;8.682;2022-09-20T14:07:54;3.90;;;2.40;;
2161;SDS011;1087;50.226;8.682;2022-09-20T14:10:32;5.30;;;2.30;;
2161;SDS011;1087;50.226;8.682;2022-09-20T14:13:01;3.27;;;1.93;;
2161;SDS011;1087;50.226;8.682;2022-09-20T14:15:37;3.30;;;2.20;;
2161;SDS011;1087;50.226;8.682;2022-09-20T14:18:10;2.43;;;1.60;;
2161;SDS011;1087;50.226;8.682;2022-09-20T14:20:40;2.87;;;1.90;;
2161;SDS011;1087;50.226;8.682;2022-09-20T14:23:17;2.10;;;1.83;;
2161;SDS011;1087;50.226;8.682;2022-09-20T14:28:53;2.50;;;1.90;;
2161;SDS011;1087;50.226;8.682;2022-09-20T14:31:24;2.43;;;1.90;;
2161;SDS011;1087;50.226;8.682;2022-09-20T14:33:53;4.20;;;2.13;;
2161;SDS011;1087;50.226;8.682;2022-09-20T14:36:23;2.90;;;2.30;;
2161;SDS011;1087;50.226;8.682;2022-09-20T14:38:52;4.30;;;2.03;;
2161;SDS011;1087;50.226;8.682;2022-09-20T14:41:31;4.20;;;2.47;;
2161;SDS011;1087;50.226;8.682;2022-09-20T14:44:02;2.25;;;1.60;;
2161;SDS011;1087;50.226;8.682;2022-09-20T14:46:33;4.63;;;1.90;;
2161;SDS011;1087;50.226;8.682;2022-09-20T14:51:48;3.33;;;3.00;;
2161;SDS011;1087;50.226;8.682;2022-09-20T14:54:21;3.10;;;2.60;;
2161;SDS011;1087;50.226;8.682;2022-09-20T14:56:49;3.87;;;2.10;;
2161;SDS011;1087;50.226;8.682;2022-09-20T14:59:19;3.10;;;2.23;;
2161;SDS011;1087;50.226;8.682;2022-09-20T15:01:59;3.30;;;3.00;;
2161;SDS011;1087;50.226;8.682;2022-09-20T15:04:26;3.33;;;2.50;;
2161;SDS011;1087;50.226;8.682;2022-09-20T15:06:52;2.87;;;2.30;;
2161;SDS011;1087;50.226;8.682;2022-09-20T15:09:20;2.20;;;1.53;;
2161;SDS011;1087;50.226;8.682;2022-09-20T15:11:46;2.50;;;1.87;;
2161;SDS011;1087;50.226;8.682;2022-09-20T15:14:22;2.40;;;2.20;;
2161;SDS011;1087;50.226;8.682;2022-09-20T15:16:48;3.00;;;1.80;;
2161;SDS011;1087;50.226;8.682;2022-09-20T15:19:13;5.10;;;1.90;;
2161;SDS011;1087;50.226;8.682;2022-09-20T15:21:39;1.73;;;1.43;;
2161;SDS011;1087;50.226;8.682;2022-09-20T15:24:05;3.73;;;1.83;;
2161;SDS011;1087;50.226;8.682;2022-09-20T15:26:30;3.17;;;1.70;;
2161;SDS011;1087;50.226;8.682;2022-09-20T15:28:56;1.57;;;1.40;;
2161;SDS011;1087;50.226;8.682;2022-09-20T15:31:23;2.67;;;1.60;;
2161;SDS011;1087;50.226;8.682;2022-09-20T15:33:49;2.70;;;1.73;;
2161;SDS011;1087;50.226;8.682;2022-09-20T15:36:14;1.73;;;1.40;;
2161;SDS011;1087;50.226;8.682;2022-09-20T15:38:40;1.50;;;1.30;;
2161;SDS011;1087;50.226;8.682;2022-09-20T15:41:05;1.90;;;1.60;;
2161;SDS011;1087;50.226;8.682;2022-09-20T15:43:31;3.70;;;1.60;;
2161;SDS011;1087;50.226;8.682;2022-09-20T15:45:58;2.17;;;1.50;;
2161;SDS011;1087;50.226;8.682;2022-09-20T15:48:26;3.20;;;1.37;;
2161;SDS011;1087;50.226;8.682;2022-09-20T15:53:29;3.07;;;2.10;;
2161;SDS011;1087;50.226;8.682;2022-09-20T15:56:00;4.90;;;1.80;;
2161;SDS011;1087;50.226;8.682;2022-09-20T15:58:32;1.73;;;1.40;;
2161;SDS011;1087;50.226;8.682;2022-09-20T16:01:02;5.33;;;1.77;;
2161;SDS011;1087;50.226;8.682;2022-09-20T16:03:32;2.60;;;2.40;;
2161;SDS011;1087;50.226;8.682;2022-09-20T16:06:03;3.43;;;1.90;;
2161;SDS011;1087;50.226;8.682;2022-09-20T16:08:36;1.87;;;1.33;;
2161;SDS011;1087;50.226;8.682;2022-09-20T16:11:04;2.60;;;1.50;;
2161;SDS011;1087;50.226;8.682;2022-09-20T16:13:31;4.00;;;1.70;;
2161;SDS011;1087;50.226;8.682;2022-09-20T16:15:58;3.23;;;1.67;;
2161;SDS011;1087;50.226;8.682;2022-09-20T16:18:25;4.60;;;1.50;;
2161;SDS011;1087;50.226;8.682;2022-09-20T16:21:11;3.30;;;1.30;;
2161;SDS011;1087;50.226;8.682;2022-09-20T16:23:38;3.00;;;1.83;;
2161;SDS011;1087;50.226;8.682;2022-09-20T16:26:05;4.90;;;2.80;;
2161;SDS011;1087;50.226;8.682;2022-09-20T16:28:31;5.50;;;2.37;;
2161;SDS011;1087;50.226;8.682;2022-09-20T16:30:58;3.50;;;2.00;;
2161;SDS011;1087;50.226;8.682;2022-09-20T16:33:24;2.83;;;2.00;;
2161;SDS011;1087;50.226;8.682;2022-09-20T16:35:50;2.43;;;2.23;;
2161;SDS011;1087;50.226;8.682;2022-09-20T16:38:16;3.37;;;2.33;;
2161;SDS011;1087;50.226;8.682;2022-09-20T16:40:42;3.97;;;2.63;;
2161;SDS011;1087;50.226;8.682;2022-09-20T16:43:11;2.90;;;2.40;;
2161;SDS011;1087;50.226;8.682;2022-09-20T16:45:44;4.33;;;3.93;;
2161;SDS011;1087;50.226;8.682;2022-09-20T16:48:11;2.83;;;2.37;;
2161;SDS011;1087;50.226;8.682;2022-09-20T16:50:36;3.97;;;2.20;;
2161;SDS011;1087;50.226;8.682;2022-09-20T16:53:02;5.43;;;2.77;;
2161;SDS011;1087;50.226;8.682;2022-09-20T16:55:28;3.73;;;2.13;;
2161;SDS011;1087;50.226;8.682;2022-09-20T16:57:53;2.70;;;2.50;;
2161;SDS011;1087;50.226;8.682;2022-09-20T17:00:19;6.80;;;3.97;;
2161;SDS011;1087;50.226;8.682;2022-09-20T17:02:48;2.80;;;2.30;;
2161;SDS011;1087;50.226;8.682;2022-09-20T17:05:14;5.10;;;2.90;;
2161;SDS011;1087;50.226;8.682;2022-09-20T17:07:40;3.83;;;2.40;;
2161;SDS011;1087;50.226;8.682;2022-09-20T17:10:08;5.03;;;2.57;;
2161;SDS011;1087;50.226;8.682;2022-09-20T17:12:34;3.10;;;2.50;;
2161;SDS011;1087;50.226;8.682;2022-09-20T17:15:06;3.83;;;1.93;;
2161;SDS011;1087;50.226;8.682;2022-09-20T17:17:32;3.17;;;2.03;;
2161;SDS011;1087;50.226;8.682;2022-09-20T17:19:58;2.60;;;1.93;;
2161;SDS011;1087;50.226;8.682;2022-09-20T17:22:28;5.33;;;2.43;;
2161;SDS011;1087;50.226;8.682;2022-09-20T17:24:54;2.67;;;2.30;;
2161;SDS011;1087;50.226;8.682;2022-09-20T17:27:19;3.20;;;2.90;;
2161;SDS011;1087;50.226;8.682;2022-09-20T17:29:45;4.13;;;2.90;;
2161;SDS011;1087;50.226;8.682;2022-09-20T17:32:11;2.57;;;2.00;;
2161;SDS011;1087;50.226;8.682;2022-09-20T17:34:37;3.13;;;1.67;;
2161;SDS011;1087;50.226;8.682;2022-09-20T17:37:03;3.10;;;2.10;;
2161;SDS011;1087;50.226;8.682;2022-09-20T17:39:28;2.90;;;2.10;;
2161;SDS011;1087;50.226;8.682;2022-09-20T17:41:54;2.17;;;2.07;;
2161;SDS011;1087;50.226;8.682;2022-09-20T17:44:19;2.57;;;1.97;;
2161;SDS011;1087;50.226;8.682;2022-09-20T17:46:46;2.27;;;1.93;;
2161;SDS011;1087;50.226;8.682;2022-09-20T17:49:14;2.27;;;1.80;;
2161;SDS011;1087;50.226;8.682;2022-09-20T17:51:51;2.63;;;2.00;;
2161;SDS011;1087;50.226;8.682;2022-09-20T17:54:19;4.70;;;2.20;;
2161;SDS011;1087;50.226;8.682;2022-09-20T17:56:46;1.63;;;1.53;;
2161;SDS011;1087;50.226;8.682;2022-09-20T17:59:14;2.60;;;2.10;;
2161;SDS011;1087;50.226;8.682;2022-09-20T18:01:41;3.20;;;1.97;;
2161;SDS011;1087;50.226;8.682;2022-09-20T18:04:07;3.57;;;2.30;;
2161;SDS011;1087;50.226;8.682;2022-09-20T18:06:37;3.13;;;1.90;;
2161;SDS011;1087;50.226;8.682;2022-09-20T18:09:05;2.73;;;2.10;;
2161;SDS011;1087;50.226;8.682;2022-09-20T18:11:39;3.10;;;1.80;;
2161;SDS011;1087;50.226;8.682;2022-09-20T18:14:07;2.40;;;1.90;;
2161;SDS011;1087;50.226;8.682;2022-09-20T18:16:40;2.93;;;1.80;;
2161;SDS011;1087;50.226;8.682;2022-09-20T18:19:07;3.70;;;2.67;;
2161;SDS011;1087;50.226;8.682;2022-09-20T18:21:33;8.70;;;4.80;;
2161;SDS011;1087;50.226;8.682;2022-09-20T18:24:00;9.00;;;5.47;;
2161;SDS011;1087;50.226;8.682;2022-09-20T18:26:27;12.70;;;10.70;;
2161;SDS011;1087;50.226;8.682;2022-09-20T18:31:28;4.77;;;4.27;;
2161;SDS011;1087;50.226;8.682;2022-09-20T18:33:57;5.07;;;4.67;;
2161;SDS011;1087;50.226;8.682;2022-09-20T18:36:30;5.53;;;5.03;;
2161;SDS011;1087;50.226;8.682;2022-09-20T18:38:56;6.60;;;5.87;;
2161;SDS011;1087;50.226;8.682;2022-09-20T18:41:24;10.63;;;7.70;;
2161;SDS011;1087;50.226;8.682;2022-09-20T18:43:59;21.00;;;15.87;;
2161;SDS011;1087;50.226;8.682;2022-09-20T18:46:26;4.13;;;3.17;;
2161;SDS011;1087;50.226;8.682;2022-09-20T18:48:54;3.63;;;3.00;;
2161;SDS011;1087;50.226;8.682;2022-09-20T18:51:22;17.80;;;11.90;;
2161;SDS011;1087;50.226;8.682;2022-09-20T18:53:49;6.03;;;4.03;;
2161;SDS011;1087;50.226;8.682;2022-09-20T18:56:25;2.97;;;2.67;;
2161;SDS011;1087;50.226;8.682;2022-09-20T18:58:57;7.57;;;4.67;;
2161;SDS011;1087;50.226;8.682;2022-09-20T19:07:14;4.20;;;3.07;;
2161;SDS011;1087;50.226;8.682;2022-09-20T19:10:07;2.97;;;2.40;;
2161;SDS011;1087;50.226;8.682;2022-09-20T19:16:02;3.90;;;2.13;;
2161;SDS011;1087;50.226;8.682;2022-09-20T19:18:39;2.77;;;2.10;;
2161;SDS011;1087;50.226;8.682;2022-09-20T19:21:26;3.10;;;2.20;;
2161;SDS011;1087;50.226;8.682;2022-09-20T19:27:01;3.17;;;1.90;;
2161;SDS011;1087;50.226;8.682;2022-09-20T19:29:26;2.03;;;1.77;;
2161;SDS011;1087;50.226;8.682;2022-09-20T19:31:56;3.03;;;1.90;;
2161;SDS011;1087;50.226;8.682;2022-09-20T19:34:26;3.33;;;2.37;;
2161;SDS011;1087;50.226;8.682;2022-09-20T19:36:59;1.90;;;1.80;;
2161;SDS011;1087;50.226;8.682;2022-09-20T19:39:33;3.27;;;2.73;;
2161;SDS011;1087;50.226;8.682;2022-09-20T19:50:58;2.53;;;2.17;;
2161;SDS011;1087;50.226;8.682;2022-09-20T19:53:28;2.50;;;2.03;;
2161;SDS011;1087;50.226;8.682;2022-09-20T19:55:55;3.20;;;2.00;;
2161;SDS011;1087;50.226;8.682;2022-09-20T19:58:27;2.63;;;2.13;;
2161;SDS011;1087;50.226;8.682;2022-09-20T20:00:52;3.90;;;1.80;;
2161;SDS011;1087;50.226;8.682;2022-09-20T20:03:19;2.57;;;2.07;;
2161;SDS011;1087;50.226;8.682;2022-09-20T20:05:51;3.50;;;1.50;;
2161;SDS011;1087;50.226;8.682;2022-09-20T20:08:21;5.20;;;1.73;;
2161;SDS011;1087;50.226;8.682;2022-09-20T20:14:13;2.43;;;2.23;;
2161;SDS011;1087;50.226;8.682;2022-09-20T20:17:47;2.47;;;1.80;;
2161;SDS011;1087;50.226;8.682;2022-09-20T20:22:32;2.77;;;1.90;;
2161;SDS011;1087;50.226;8.682;2022-09-20T20:25:16;3.13;;;2.20;;
2161;SDS011;1087;50.226;8.682;2022-09-20T20:28:02;2.43;;;2.10;;
2161;SDS011;1087;50.226;8.682;2022-09-20T20:30:27;2.40;;;2.00;;
2161;SDS011;1087;50.226;8.682;2022-09-20T20:32:54;2.60;;;2.40;;
2161;SDS011;1087;50.226;8.682;2022-09-20T20:35:23;2.93;;;2.73;;
2161;SDS011;1087;50.226;8.682;2022-09-20T20:37:50;4.47;;;3.03;;
2161;SDS011;1087;50.226;8.682;2022-09-20T20:40:16;5.70;;;3.53;;
2161;SDS011;1087;50.226;8.682;2022-09-20T20:42:42;3.70;;;2.60;;
2161;SDS011;1087;50.226;8.682;2022-09-20T20:45:09;4.50;;;2.93;;
2161;SDS011;1087;50.226;8.682;2022-09-20T20:47:35;3.90;;;3.43;;
2161;SDS011;1087;50.226;8.682;2022-09-20T20:50:01;4.33;;;3.23;;
2161;SDS011;1087;50.226;8.682;2022-09-20T20:52:27;4.53;;;4.13;;